Time;durP1;ratioP1;P1;durP2;ratioP2;P2;SDS_P1;SDS_P2;PMS_P1;PMS_P2;Temp;Humidity;BMP_temperature;BMP_pressure;BME280_temperature;BME280_humidity;BME280_pressure;Samples;Min_cycle;Max_cycle;Signal;HPM_P1;HPM_P2
2023/10/05 00:04:39;;;;;;;5.57;3.92;;;10.00;98.50;;;;;;4980868;28;20029;-90
2023/10/05 00:07:39;;;;;;;5.68;5.18;;;9.90;99.90;;;;;;4980193;28;20023;-92
2023/10/05 00:10:03;;;;;;;5.82;5.00;;;9.90;99.90;;;;;;4978735;28;20031;-90
2023/10/05 00:12:30;;;;;;;5.82;4.22;;;10.00;99.90;;;;;;4979912;28;20458;-90
2023/10/05 00:17:37;;;;;;;4.63;4.18;;;9.90;99.90;;;;;;4981410;28;20037;-90
2023/10/05 00:20:10;;;;;;;6.18;5.57;;;10.00;99.90;;;;;;4979454;28;20099;-89
2023/10/05 00:22:40;;;;;;;5.65;4.15;;;10.10;99.90;;;;;;4980492;28;20023;-88
2023/10/05 00:25:09;;;;;;;3.97;3.58;;;10.10;99.90;;;;;;4981159;28;20111;-90
2023/10/05 00:27:37;;;;;;;5.63;5.07;;;10.20;99.90;;;;;;4963844;28;20038;-91
2023/10/05 00:30:05;;;;;;;;;;;10.20;99.90;;;;;;4980776;28;20018;-89
2023/10/05 00:32:42;;;;;;;6.38;4.55;;;10.20;99.90;;;;;;4980198;28;19913;-89
2023/10/05 00:37:44;;;;;;;4.72;4.35;;;10.10;99.90;;;;;;4980682;28;20119;-89
2023/10/05 00:40:24;;;;;;;5.90;5.18;;;10.10;99.80;;;;;;4979908;28;20023;-89
2023/10/05 00:42:52;;;;;;;4.80;3.05;;;10.10;99.70;;;;;;4979450;28;20110;-90
2023/10/05 00:45:24;;;;;;;7.93;5.57;;;10.10;99.80;;;;;;4978783;28;20065;-90
2023/10/05 00:47:51;;;;;;;5.40;3.83;;;10.00;99.50;;;;;;4979042;28;20023;-89
2023/10/05 00:50:19;;;;;;;5.60;5.15;;;10.10;99.80;;;;;;4979619;28;20090;-89
2023/10/05 00:52:51;;;;;;;4.93;4.43;;;10.10;99.80;;;;;;4979043;28;20023;-91
2023/10/05 00:55:20;;;;;;;6.05;5.55;;;10.00;99.40;;;;;;4978736;28;20029;-90
2023/10/05 00:57:48;;;;;;;4.35;3.95;;;10.00;99.80;;;;;;4979887;28;20105;-90
2023/10/05 01:00:28;;;;;;;4.43;3.97;;;9.90;99.80;;;;;;4967727;28;20489;-90
2023/10/05 01:03:16;;;;;;;5.88;5.18;;;9.90;99.90;;;;;;4961252;28;20034;-90
2023/10/05 01:06:01;;;;;;;5.05;4.65;;;9.80;99.90;;;;;;4960797;28;20031;-90
2023/10/05 01:08:31;;;;;;;4.47;4.07;;;9.80;99.90;;;;;;4959692;29;20027;-90
2023/10/05 01:10:58;;;;;;;4.72;3.92;;;9.90;99.90;;;;;;4960510;28;20033;-89
2023/10/05 01:13:32;;;;;;;4.10;3.70;;;9.90;99.90;;;;;;4959426;28;20031;-91
2023/10/05 01:16:15;;;;;;;;;;;9.90;99.90;;;;;;4961446;29;20041;-90
2023/10/05 01:18:42;;;;;;;5.40;2.90;;;9.90;99.60;;;;;;4960275;29;19907;-89
2023/10/05 01:21:09;;;;;;;5.72;3.45;;;10.00;99.60;;;;;;4959781;28;20482;-89
2023/10/05 01:23:39;;;;;;;4.40;4.05;;;9.90;99.90;;;;;;4960941;28;20513;-91
2023/10/05 01:26:10;;;;;;;4.43;4.13;;;10.00;99.40;;;;;;4960510;28;20031;-90
2023/10/05 01:28:41;;;;;;;5.18;4.65;;;10.10;99.50;;;;;;4959499;29;20055;-90
2023/10/05 01:31:16;;;;;;;5.68;4.45;;;10.00;98.70;;;;;;4944205;29;20031;-91
2023/10/05 01:33:46;;;;;;;7.43;4.15;;;10.00;98.80;;;;;;4959995;29;20489;-90
2023/10/05 01:36:19;;;;;;;4.43;4.03;;;10.00;98.20;;;;;;4959971;28;20033;-89
2023/10/05 01:38:48;;;;;;;6.75;3.33;;;10.00;98.40;;;;;;4962170;28;20027;-90
2023/10/05 01:41:21;;;;;;;7.32;4.32;;;9.90;98.00;;;;;;4981074;28;20039;-88
2023/10/05 01:43:48;;;;;;;5.07;2.97;;;9.80;98.60;;;;;;4962062;29;20027;-90
2023/10/05 01:46:15;;;;;;;4.60;3.70;;;9.80;99.10;;;;;;4961161;28;20074;-91
2023/10/05 01:48:41;;;;;;;7.68;6.82;;;9.60;99.60;;;;;;4959170;29;20032;-90
2023/10/05 01:51:15;;;;;;;6.22;5.43;;;9.60;99.40;;;;;;4959887;29;20035;-89
2023/10/05 01:53:44;;;;;;;5.53;5.03;;;9.50;99.60;;;;;;4963008;28;20086;-89
2023/10/05 01:56:20;;;;;;;5.53;4.20;;;9.50;99.20;;;;;;4969309;28;20027;-90
2023/10/05 01:58:50;;;;;;;4.65;4.25;;;9.40;99.00;;;;;;4972771;28;20030;-90
2023/10/05 02:01:20;;;;;;;5.82;3.90;;;9.40;99.10;;;;;;4970712;29;20486;-91
2023/10/05 02:03:54;;;;;;;4.82;4.43;;;9.40;99.80;;;;;;4967285;28;20031;-91
2023/10/05 02:06:22;;;;;;;5.15;4.72;;;9.40;99.80;;;;;;4962907;29;20023;-89
2023/10/05 02:08:49;;;;;;;5.53;5.07;;;9.40;99.90;;;;;;4963223;28;20024;-91
2023/10/05 02:11:23;;;;;;;4.80;4.05;;;9.40;99.90;;;;;;4963115;29;20114;-91
2023/10/05 02:13:50;;;;;;;5.82;4.88;;;9.30;99.80;;;;;;4962714;29;20035;-88
2023/10/05 02:16:18;;;;;;;4.30;3.90;;;9.40;99.80;;;;;;4964518;28;20106;-89
2023/10/05 02:18:45;;;;;;;5.68;4.82;;;9.40;99.90;;;;;;4963821;29;20059;-90
2023/10/05 02:21:30;;;;;;;6.50;3.47;;;9.40;99.30;;;;;;4979856;28;20391;-90
2023/10/05 02:24:10;;;;;;;4.93;3.45;;;9.30;99.90;;;;;;4962980;29;20393;-91
2023/10/05 02:26:54;;;;;;;4.35;4.05;;;9.40;99.90;;;;;;4962326;29;20489;-90
2023/10/05 02:29:20;;;;;;;5.05;3.83;;;9.40;99.90;;;;;;4962666;29;20091;-90
2023/10/05 02:34:59;;;;;;;5.05;4.63;;;9.40;99.90;;;;;;4964686;28;20027;-90
2023/10/05 02:37:22;;;;;;;4.43;3.55;;;9.50;99.90;;;;;;4964051;28;20102;-90
2023/10/05 02:39:49;;;;;;;4.00;3.65;;;9.50;99.90;;;;;;4962447;29;20031;-90
2023/10/05 02:42:18;;;;;;;4.70;4.07;;;9.50;99.90;;;;;;4962424;29;20485;-89
2023/10/05 02:44:45;;;;;;;6.75;3.88;;;9.50;99.90;;;;;;4962513;29;20068;-89
2023/10/05 02:47:15;;;;;;;4.35;3.95;;;9.60;99.90;;;;;;4962458;28;20039;-90
2023/10/05 02:49:44;;;;;;;2.28;2.00;;;9.60;99.90;;;;;;4965635;29;20454;-89
2023/10/05 02:52:14;;;;;;;4.80;4.40;;;9.70;99.90;;;;;;4981799;28;20031;-87
2023/10/05 02:54:40;;;;;;;4.28;3.97;;;9.70;99.90;;;;;;4978152;28;20030;-90
2023/10/05 02:57:14;;;;;;;4.70;3.95;;;9.70;99.90;;;;;;4983888;28;20027;-92
2023/10/05 02:59:43;;;;;;;4.57;4.18;;;9.80;99.90;;;;;;4983708;28;20031;-90
2023/10/05 03:02:14;;;;;;;5.15;3.78;;;9.70;99.90;;;;;;4980707;28;20046;-90
2023/10/05 03:04:47;;;;;;;5.90;3.30;;;9.70;99.90;;;;;;4980781;28;20123;-89
2023/10/05 03:07:17;;;;;;;4.90;4.50;;;9.70;99.90;;;;;;4983097;28;20030;-91
2023/10/05 03:09:50;;;;;;;3.78;3.33;;;9.80;99.90;;;;;;4981150;28;20058;-90
2023/10/05 03:12:20;;;;;;;3.65;3.25;;;9.80;99.90;;;;;;4981877;28;20050;-89
2023/10/05 03:14:50;;;;;;;4.47;4.13;;;9.80;99.90;;;;;;4982235;28;20027;-89
2023/10/05 03:17:21;;;;;;;7.82;4.95;;;9.80;99.90;;;;;;4981342;28;20022;-90
2023/10/05 03:19:50;;;;;;;5.63;4.65;;;9.80;99.90;;;;;;4981405;28;20030;-89
2023/10/05 03:22:16;;;;;;;3.70;3.30;;;9.70;99.90;;;;;;4980795;28;20023;-90
2023/10/05 03:24:47;;;;;;;8.38;3.97;;;9.70;99.90;;;;;;4981311;28;20023;-88
2023/10/05 03:27:16;;;;;;;7.18;4.53;;;9.70;99.90;;;;;;4979993;28;20113;-90
2023/10/05 03:29:46;;;;;;;5.32;4.82;;;9.70;99.90;;;;;;4996354;28;20025;-90
2023/10/05 03:34:53;;;;;;;4.95;4.50;;;9.70;99.90;;;;;;4981180;28;20073;-89
2023/10/05 03:37:19;;;;;;;4.78;4.18;;;9.70;99.90;;;;;;4981613;28;20050;-89
2023/10/05 03:40:06;;;;;;;4.57;3.38;;;9.70;99.90;;;;;;4981410;28;20146;-89
2023/10/05 03:42:33;;;;;;;4.43;4.03;;;9.60;99.90;;;;;;4980333;28;20027;-91
2023/10/05 03:45:09;;;;;;;6.57;6.13;;;9.70;99.90;;;;;;4979513;28;20497;-89
2023/10/05 03:47:39;;;;;;;3.22;2.88;;;9.70;99.90;;;;;;4981095;28;20510;-90
2023/10/05 03:50:16;;;;;;;5.10;4.35;;;9.70;99.90;;;;;;4996249;28;20050;-90
2023/10/05 03:52:44;;;;;;;5.80;5.18;;;9.80;99.90;;;;;;4980330;28;20027;-89
2023/10/05 03:55:11;;;;;;;5.95;4.32;;;9.80;99.90;;;;;;4981142;28;20050;-87
2023/10/05 03:57:41;;;;;;;4.72;3.67;;;9.80;99.90;;;;;;4980674;28;20034;-90
2023/10/05 04:02:48;;;;;;;5.15;4.78;;;9.80;99.90;;;;;;4981242;28;20027;-91
2023/10/05 04:05:18;;;;;;;4.53;4.13;;;9.70;99.90;;;;;;4979896;28;20528;-88
2023/10/05 04:07:47;;;;;;;6.68;3.70;;;9.70;99.90;;;;;;4980257;28;20050;-89
2023/10/05 04:10:15;;;;;;;5.53;3.65;;;9.70;99.90;;;;;;4976902;28;20568;-92
2023/10/05 04:12:42;;;;;;;4.88;4.43;;;9.70;99.90;;;;;;4961443;28;20055;-90
2023/10/05 04:15:11;;;;;;;4.28;2.80;;;9.70;99.90;;;;;;4961257;28;20027;-90
2023/10/05 04:17:37;;;;;;;7.78;4.38;;;9.70;99.90;;;;;;4961380;28;20035;-90
2023/10/05 04:20:09;;;;;;;4.97;3.88;;;9.80;99.90;;;;;;4969128;28;20039;-88
2023/10/05 04:22:37;;;;;;;5.20;4.35;;;9.70;99.90;;;;;;4980767;28;20045;-88
2023/10/05 04:25:04;;;;;;;4.63;4.22;;;9.70;99.90;;;;;;4975854;28;20158;-89
2023/10/05 04:27:30;;;;;;;4.30;3.90;;;9.70;99.90;;;;;;4979955;28;20047;-89
2023/10/05 04:29:57;;;;;;;4.90;4.30;;;9.80;99.90;;;;;;4972185;28;20482;-87
2023/10/05 04:32:22;;;;;;;5.93;3.13;;;9.70;99.90;;;;;;4959276;28;20030;-88
2023/10/05 04:34:50;;;;;;;3.53;3.03;;;9.70;99.90;;;;;;4961024;28;20027;-88
2023/10/05 04:37:16;;;;;;;8.63;3.47;;;9.80;99.90;;;;;;4969554;28;20042;-89
2023/10/05 04:39:43;;;;;;;4.50;3.33;;;9.80;99.90;;;;;;4960802;28;20031;-89
2023/10/05 04:42:11;;;;;;;6.50;4.38;;;9.80;99.90;;;;;;4970671;28;20026;-88
2023/10/05 04:44:38;;;;;;;7.72;3.83;;;9.80;99.90;;;;;;4981311;28;20106;-88
2023/10/05 04:47:04;;;;;;;6.47;5.88;;;9.80;99.90;;;;;;4980785;28;20045;-88
2023/10/05 04:49:31;;;;;;;9.30;4.30;;;9.80;99.90;;;;;;4979901;28;20106;-87
2023/10/05 04:51:57;;;;;;;3.92;3.42;;;9.70;99.90;;;;;;4979411;28;20027;-88
2023/10/05 04:54:26;;;;;;;9.30;8.60;;;9.70;99.90;;;;;;4991914;28;20026;-89
2023/10/05 04:57:03;;;;;;;4.53;3.95;;;9.70;99.90;;;;;;4984262;28;20512;-89
2023/10/05 04:59:48;;;;;;;6.68;5.28;;;9.70;99.90;;;;;;4978570;28;20489;-89
2023/10/05 05:02:47;;;;;;;4.50;3.58;;;9.60;99.90;;;;;;4995328;28;20086;-92
2023/10/05 05:05:33;;;;;;;5.72;5.20;;;9.70;99.90;;;;;;4994873;28;20034;-92
2023/10/05 05:07:59;;;;;;;5.00;4.68;;;9.60;99.90;;;;;;4981155;28;20024;-91
2023/10/05 05:10:25;;;;;;;5.90;4.28;;;9.50;99.90;;;;;;4987812;28;20077;-92
2023/10/05 05:12:50;;;;;;;6.65;4.93;;;9.60;99.90;;;;;;4996347;28;20022;-96
2023/10/05 05:15:16;;;;;;;5.97;4.70;;;9.70;99.90;;;;;;4995637;28;20026;-94
2023/10/05 05:17:43;;;;;;;5.40;4.22;;;9.60;99.90;;;;;;4985676;28;20051;-96
2023/10/05 05:20:14;;;;;;;5.47;4.70;;;9.60;99.90;;;;;;4991435;28;20031;-89
2023/10/05 05:22:40;;;;;;;4.90;4.30;;;9.60;99.90;;;;;;4992217;28;20114;-89
2023/10/05 05:25:06;;;;;;;6.75;5.20;;;9.60;99.90;;;;;;4994112;28;20078;-93
2023/10/05 05:27:33;;;;;;;4.57;4.28;;;9.70;99.90;;;;;;4981695;28;20038;-86
2023/10/05 05:29:59;;;;;;;6.32;5.72;;;9.70;99.90;;;;;;4977382;28;20031;-89
2023/10/05 05:32:25;;;;;;;5.57;4.78;;;9.70;99.90;;;;;;4980929;28;20110;-90
2023/10/05 05:34:51;;;;;;;6.75;4.45;;;9.70;99.90;;;;;;4981031;28;20053;-88
2023/10/05 05:37:28;;;;;;;6.47;4.30;;;9.80;99.90;;;;;;4982384;28;20026;-91
2023/10/05 05:39:54;;;;;;;6.13;5.53;;;9.80;99.90;;;;;;4981776;28;20031;-93
2023/10/05 05:42:21;;;;;;;4.78;4.25;;;9.80;99.90;;;;;;4981121;28;20716;-89
2023/10/05 05:44:47;;;;;;;7.10;5.03;;;9.80;99.90;;;;;;4981838;28;20023;-89
2023/10/05 05:47:14;;;;;;;6.93;5.72;;;9.80;99.90;;;;;;4981259;28;20165;-91
2023/10/05 05:49:46;;;;;;;6.53;4.57;;;9.80;99.90;;;;;;4982557;28;20023;-87
2023/10/05 05:52:15;;;;;;;5.57;5.03;;;9.80;99.90;;;;;;4983995;28;20050;-88
2023/10/05 05:54:42;;;;;;;7.57;6.88;;;9.80;99.90;;;;;;4984061;28;20023;-89
2023/10/05 05:57:12;;;;;;;6.13;5.53;;;9.80;99.90;;;;;;4982803;28;20023;-88
2023/10/05 05:59:39;;;;;;;9.30;4.95;;;9.90;99.90;;;;;;4983220;28;20034;-89
2023/10/05 06:02:09;;;;;;;7.50;4.85;;;9.90;99.90;;;;;;4982819;28;20178;-88
2023/10/05 06:04:39;;;;;;;9.55;6.05;;;9.90;99.90;;;;;;4975797;28;20034;-89
2023/10/05 06:07:11;;;;;;;8.95;6.25;;;9.80;99.90;;;;;;4979648;28;20019;-88
2023/10/05 06:09:42;;;;;;;8.38;4.82;;;9.80;99.90;;;;;;4975346;28;20566;-89
2023/10/05 06:12:11;;;;;;;7.40;6.78;;;9.80;99.90;;;;;;4981388;28;20031;-87
2023/10/05 06:14:40;;;;;;;11.80;7.18;;;9.90;99.90;;;;;;4981207;28;20027;-88
2023/10/05 06:17:07;;;;;;;8.88;6.90;;;9.90;99.90;;;;;;4980665;28;20023;-88
2023/10/05 06:19:33;;;;;;;7.65;4.97;;;9.90;99.90;;;;;;4982356;28;20023;-89
2023/10/05 06:22:01;;;;;;;10.50;5.30;;;10.00;99.90;;;;;;4980402;28;20026;-87
2023/10/05 06:24:27;;;;;;;7.20;5.25;;;10.00;99.90;;;;;;4982125;28;20061;-89
2023/10/05 06:26:53;;;;;;;14.23;5.30;;;10.10;99.90;;;;;;4983351;28;20054;-88
2023/10/05 06:29:18;;;;;;;7.40;6.15;;;10.10;99.90;;;;;;4983730;28;20023;-91
2023/10/05 06:31:44;;;;;;;7.07;6.20;;;10.10;99.90;;;;;;4983642;28;20057;-92
2023/10/05 06:34:09;;;;;;;6.45;5.45;;;10.10;99.90;;;;;;4982925;28;20027;-89
2023/10/05 06:36:42;;;;;;;6.50;5.18;;;10.20;99.90;;;;;;4981837;28;20027;-89
2023/10/05 06:39:14;;;;;;;7.07;6.18;;;10.30;99.90;;;;;;4982564;28;20030;-87
2023/10/05 06:41:41;;;;;;;6.18;4.78;;;10.40;99.90;;;;;;4980693;28;20030;-89
2023/10/05 06:44:10;;;;;;;6.97;5.32;;;10.40;99.90;;;;;;4980880;28;20066;-86
2023/10/05 06:46:40;;;;;;;9.93;6.57;;;10.30;99.90;;;;;;4982938;28;20042;-89
2023/10/05 06:49:06;;;;;;;12.52;8.80;;;10.40;99.90;;;;;;4982609;28;20106;-89
2023/10/05 06:51:31;;;;;;;10.40;5.93;;;10.40;99.90;;;;;;4981314;28;20474;-90
2023/10/05 06:53:57;;;;;;;9.95;7.40;;;10.40;99.90;;;;;;4982209;28;20065;-89
2023/10/05 06:56:24;;;;;;;10.50;7.45;;;10.50;99.90;;;;;;4980602;28;20027;-92
2023/10/05 06:58:50;;;;;;;9.85;8.00;;;10.50;99.90;;;;;;4982004;28;20031;-90
2023/10/05 07:01:20;;;;;;;9.70;7.30;;;10.60;99.90;;;;;;4982013;28;20366;-90
2023/10/05 07:03:56;;;;;;;12.07;8.45;;;10.70;99.90;;;;;;4981220;28;20019;-90
2023/10/05 07:06:29;;;;;;;13.07;8.00;;;10.70;99.90;;;;;;4974774;28;20019;-90
2023/10/05 07:08:55;;;;;;;11.00;7.63;;;10.70;99.90;;;;;;4972239;28;20027;-89
2023/10/05 07:11:22;;;;;;;9.55;8.05;;;10.70;99.90;;;;;;4960666;28;20050;-88
2023/10/05 07:13:48;;;;;;;11.38;7.90;;;10.90;99.90;;;;;;4962403;28;20387;-91
2023/10/05 07:16:15;;;;;;;11.68;10.65;;;10.90;99.90;;;;;;4975625;28;20103;-88
2023/10/05 07:18:42;;;;;;;11.80;8.25;;;10.90;99.90;;;;;;4982133;28;20022;-88
2023/10/05 07:21:08;;;;;;;13.30;7.78;;;10.90;99.90;;;;;;4981966;28;20489;-89
2023/10/05 07:23:38;;;;;;;12.48;9.18;;;11.00;99.90;;;;;;4982092;28;20039;-88
2023/10/05 07:26:06;;;;;;;8.98;7.63;;;11.10;99.90;;;;;;4987291;28;20106;-91
2023/10/05 07:28:34;;;;;;;11.55;7.28;;;11.10;99.90;;;;;;4981685;28;20022;-88
2023/10/05 07:31:02;;;;;;;14.95;7.45;;;11.10;99.90;;;;;;4980838;28;20054;-90
2023/10/05 07:33:29;;;;;;;12.45;8.75;;;11.20;99.90;;;;;;4981640;28;20061;-89
2023/10/05 07:35:54;;;;;;;11.63;8.38;;;11.20;99.90;;;;;;4981572;28;20519;-89
2023/10/05 07:38:22;;;;;;;8.90;7.82;;;11.20;99.90;;;;;;4981551;28;20066;-90
2023/10/05 07:40:47;;;;;;;9.93;8.70;;;11.20;99.90;;;;;;4981209;28;20031;-90
2023/10/05 07:43:13;;;;;;;11.40;6.68;;;11.30;99.90;;;;;;4981597;28;20027;-89
2023/10/05 07:45:39;;;;;;;9.15;7.97;;;11.40;99.90;;;;;;4981536;28;20023;-89
2023/10/05 07:48:06;;;;;;;8.52;6.90;;;11.50;99.90;;;;;;4979562;28;20037;-89
2023/10/05 07:50:32;;;;;;;8.50;6.22;;;11.50;99.90;;;;;;4961428;28;20090;-91
2023/10/05 07:52:58;;;;;;;8.85;7.85;;;11.50;99.90;;;;;;4977662;28;20027;-89
2023/10/05 07:55:25;;;;;;;8.10;6.28;;;11.70;99.90;;;;;;4980955;28;20066;-89
2023/10/05 07:57:53;;;;;;;9.38;8.30;;;11.70;99.90;;;;;;4981333;28;20050;-88
2023/10/05 08:00:20;;;;;;;7.78;6.72;;;11.70;99.90;;;;;;4995298;28;20034;-89
2023/10/05 08:02:46;;;;;;;10.10;7.55;;;11.90;99.90;;;;;;4981277;28;20081;-90
2023/10/05 08:05:12;;;;;;;8.65;6.25;;;11.80;99.90;;;;;;4981116;28;20362;-89
2023/10/05 08:07:39;;;;;;;9.70;7.30;;;12.00;99.90;;;;;;4980201;28;20035;-88
2023/10/05 08:10:19;;;;;;;8.50;6.95;;;12.10;99.90;;;;;;4978099;28;20047;-89
2023/10/05 08:12:46;;;;;;;10.45;7.45;;;12.20;99.90;;;;;;4980821;28;20026;-91
2023/10/05 08:15:18;;;;;;;8.18;6.75;;;12.30;99.90;;;;;;4981312;28;20026;-89
2023/10/05 08:17:44;;;;;;;12.57;6.55;;;12.40;99.90;;;;;;4979648;28;20033;-89
2023/10/05 08:20:11;;;;;;;14.13;8.38;;;12.40;99.90;;;;;;4980261;28;20030;-87
2023/10/05 08:22:37;;;;;;;11.82;5.95;;;12.50;99.90;;;;;;4980963;28;20019;-89
2023/10/05 08:25:14;;;;;;;11.32;7.93;;;12.50;99.90;;;;;;4981067;28;20023;-89
2023/10/05 08:27:42;;;;;;;11.88;7.45;;;12.50;99.90;;;;;;4976389;28;20034;-87
2023/10/05 08:30:10;;;;;;;7.97;5.80;;;12.60;99.00;;;;;;4979112;28;20038;-87
2023/10/05 08:32:37;;;;;;;9.43;7.03;;;12.60;99.30;;;;;;4980331;28;20050;-88
2023/10/05 08:35:07;;;;;;;7.38;5.80;;;12.60;99.00;;;;;;4980371;28;20054;-89
2023/10/05 08:37:41;;;;;;;9.52;6.93;;;12.70;99.90;;;;;;4988891;28;20022;-94
2023/10/05 08:43:10;;;;;;;13.05;7.47;;;12.80;98.90;;;;;;4983334;28;20031;-88
2023/10/05 08:45:51;;;;;;;8.52;6.70;;;13.00;99.10;;;;;;4979575;28;20057;-89
2023/10/05 08:48:34;;;;;;;9.05;7.32;;;13.10;98.70;;;;;;4980120;28;20034;-90
2023/10/05 08:51:10;;;;;;;8.52;5.20;;;13.20;98.30;;;;;;4980386;28;20401;-90
2023/10/05 08:53:48;;;;;;;11.57;6.10;;;13.30;97.60;;;;;;4979854;28;20030;-88
2023/10/05 08:56:17;;;;;;;8.48;6.72;;;13.30;97.20;;;;;;4981675;28;20026;-89
2023/10/05 08:58:47;;;;;;;8.77;5.97;;;13.30;96.30;;;;;;4980868;28;20501;-88
2023/10/05 09:01:31;;;;;;;7.18;5.90;;;13.40;96.10;;;;;;4979972;28;20034;-88
2023/10/05 09:06:59;;;;;;;7.97;6.82;;;13.40;95.20;;;;;;4971396;28;20022;-90
2023/10/05 09:09:36;;;;;;;7.07;5.95;;;13.60;95.10;;;;;;4959787;28;20517;-89
2023/10/05 09:12:34;;;;;;;10.70;6.57;;;13.80;94.00;;;;;;4959203;28;20039;-89
2023/10/05 09:15:09;;;;;;;8.73;5.82;;;13.80;93.00;;;;;;4966856;28;20118;-92
2023/10/05 09:17:34;;;;;;;9.07;6.13;;;14.10;92.10;;;;;;4965597;28;20034;-91
2023/10/05 09:20:23;;;;;;;10.30;6.20;;;14.40;91.00;;;;;;4970403;28;20027;-91
2023/10/05 09:22:56;;;;;;;7.82;5.72;;;14.50;89.80;;;;;;4980670;28;20027;-90
2023/10/05 09:25:28;;;;;;;9.88;5.40;;;14.60;89.50;;;;;;4976369;28;20031;-89
2023/10/05 09:27:56;;;;;;;10.05;5.43;;;14.60;90.00;;;;;;4962542;29;20023;-87
2023/10/05 09:30:22;;;;;;;9.40;5.38;;;14.80;89.00;;;;;;4961625;28;20019;-90
2023/10/05 09:33:06;;;;;;;10.75;5.70;;;14.90;88.10;;;;;;4958753;29;20051;-89
2023/10/05 09:35:31;;;;;;;9.35;4.90;;;15.00;87.90;;;;;;4958743;29;20027;-89
2023/10/05 09:38:01;;;;;;;11.80;5.70;;;15.20;87.50;;;;;;4960423;28;20078;-88
2023/10/05 09:40:28;;;;;;;9.27;6.25;;;15.10;88.10;;;;;;4977156;28;20497;-89
2023/10/05 09:43:00;;;;;;;7.00;5.15;;;15.50;86.50;;;;;;4976694;28;20034;-90
2023/10/05 09:45:30;;;;;;;11.25;6.25;;;15.60;85.80;;;;;;4979188;28;20011;-89
2023/10/05 09:48:00;;;;;;;10.15;5.07;;;15.80;84.70;;;;;;4978493;28;20484;-87
2023/10/05 09:50:29;;;;;;;9.93;5.25;;;15.80;84.60;;;;;;4978555;28;20054;-89
2023/10/05 09:52:59;;;;;;;7.10;5.65;;;16.00;83.90;;;;;;4977058;28;20698;-90
2023/10/05 09:55:25;;;;;;;9.27;5.20;;;16.30;81.90;;;;;;4978180;28;20031;-89
2023/10/05 09:57:51;;;;;;;9.57;5.10;;;16.40;81.70;;;;;;4975605;28;20027;-88
2023/10/05 10:00:30;;;;;;;12.07;5.43;;;16.60;80.60;;;;;;4978855;28;20501;-88
2023/10/05 10:03:01;;;;;;;9.00;2.97;;;16.60;80.30;;;;;;4972838;28;20406;-88
2023/10/05 10:05:55;;;;;;;7.50;4.47;;;16.70;80.20;;;;;;4978046;28;20106;-89
2023/10/05 10:08:28;;;;;;;10.27;5.60;;;17.00;78.90;;;;;;4966010;28;20497;-89
2023/10/05 10:11:31;;;;;;;9.20;5.28;;;17.20;76.60;;;;;;4977454;28;20283;-89
2023/10/05 10:13:52;;;;;;;9.48;5.07;;;17.10;78.40;;;;;;4975536;28;20035;-87
2023/10/05 10:16:22;;;;;;;7.72;4.28;;;17.10;77.00;;;;;;4976745;28;20031;-90
2023/10/05 10:19:19;;;;;;;9.68;4.50;;;17.40;77.40;;;;;;4980181;28;20034;-90
2023/10/05 10:21:57;;;;;;;8.20;3.53;;;17.70;73.40;;;;;;4984928;28;20038;-90
2023/10/05 10:24:28;;;;;;;13.05;5.00;;;17.80;73.10;;;;;;4982564;28;20030;-88
2023/10/05 10:27:07;;;;;;;8.23;4.63;;;17.70;74.20;;;;;;4982354;28;20054;-91
2023/10/05 10:29:53;;;;;;;10.10;5.32;;;17.70;72.80;;;;;;4996974;28;20046;-89
2023/10/05 10:32:22;;;;;;;7.60;5.50;;;17.80;74.10;;;;;;4977871;28;20520;-90
2023/10/05 10:34:55;;;;;;;9.43;2.95;;;17.80;74.30;;;;;;4960805;29;20417;-90
2023/10/05 10:37:50;;;;;;;11.20;5.20;;;17.70;73.40;;;;;;4961932;28;20030;-89
2023/10/05 10:42:48;;;;;;;7.78;3.47;;;17.60;73.60;;;;;;4981607;28;20385;-88
2023/10/05 10:45:23;;;;;;;9.60;5.50;;;17.40;73.10;;;;;;4980959;28;20027;-90
2023/10/05 10:47:50;;;;;;;15.38;6.80;;;17.30;73.50;;;;;;4982012;28;20031;-89
2023/10/05 10:50:22;;;;;;;9.88;4.63;;;17.50;72.10;;;;;;4980937;28;20085;-90
2023/10/05 10:52:50;;;;;;;10.05;5.75;;;17.60;71.30;;;;;;4975481;28;20510;-89
2023/10/05 10:55:20;;;;;;;13.50;7.35;;;17.90;71.60;;;;;;4980907;28;20039;-90
2023/10/05 10:57:47;;;;;;;9.80;5.80;;;18.30;69.80;;;;;;4978593;28;20039;-90
2023/10/05 11:03:09;;;;;;;12.15;4.32;;;18.70;68.20;;;;;;4980120;28;20290;-92
2023/10/05 11:05:51;;;;;;;9.95;4.97;;;18.60;67.00;;;;;;4980450;28;20042;-88
2023/10/05 11:08:20;;;;;;;9.45;5.60;;;18.40;68.00;;;;;;4980845;28;20022;-89
2023/10/05 11:11:00;;;;;;;13.15;5.40;;;18.60;67.50;;;;;;4980981;28;20019;-90
2023/10/05 11:13:30;;;;;;;12.23;5.15;;;18.70;67.50;;;;;;4980658;28;20089;-88
2023/10/05 11:15:58;;;;;;;10.00;6.65;;;18.60;67.20;;;;;;4979264;28;20035;-89
2023/10/05 11:18:39;;;;;;;9.93;5.00;;;18.60;67.80;;;;;;4980400;28;20046;-88
2023/10/05 11:21:13;;;;;;;13.57;6.00;;;19.00;66.90;;;;;;4981915;28;20393;-89
2023/10/05 11:23:57;;;;;;;11.48;5.97;;;18.80;67.30;;;;;;4981218;28;20029;-89
2023/10/05 11:26:28;;;;;;;;;;;;;;;;;;;;;
2023/10/05 11:28:56;;;;;;;11.50;4.53;;;19.30;63.80;;;;;;4980838;28;20501;-87
2023/10/05 11:31:23;;;;;;;10.45;5.28;;;19.10;65.40;;;;;;4980986;28;20114;-86
2023/10/05 11:34:00;;;;;;;8.40;6.15;;;19.30;65.40;;;;;;4980721;28;20031;-89
2023/10/05 11:36:33;;;;;;;11.43;5.97;;;19.30;63.90;;;;;;4981128;28;20015;-88
2023/10/05 11:39:00;;;;;;;9.80;4.72;;;19.00;63.40;;;;;;4980323;28;20023;-90
2023/10/05 11:41:29;;;;;;;13.10;5.18;;;18.90;63.10;;;;;;4981047;28;20027;-88
2023/10/05 11:43:58;;;;;;;12.95;5.00;;;18.80;62.10;;;;;;4981134;28;20481;-88
2023/10/05 11:46:42;;;;;;;11.90;5.38;;;18.70;64.60;;;;;;4990466;28;20027;-88
2023/10/05 11:49:10;;;;;;;13.35;4.72;;;19.00;64.20;;;;;;4986788;28;20015;-89
2023/10/05 11:51:42;;;;;;;11.68;5.22;;;19.30;62.80;;;;;;4980954;28;20051;-88
2023/10/05 11:54:08;;;;;;;14.15;6.40;;;19.20;62.00;;;;;;4979602;28;20402;-90
2023/10/05 11:56:34;;;;;;;7.63;4.93;;;18.90;61.30;;;;;;4980473;28;20158;-88
2023/10/05 11:59:00;;;;;;;9.68;4.55;;;18.90;61.50;;;;;;4981578;28;20108;-89
2023/10/05 12:01:32;;;;;;;11.13;4.88;;;19.20;61.60;;;;;;4982276;28;20031;-89
2023/10/05 12:03:58;;;;;;;10.32;5.07;;;19.00;62.30;;;;;;4981898;28;20495;-90
2023/10/05 12:06:25;;;;;;;13.20;5.57;;;18.90;61.40;;;;;;4980564;28;20102;-90
2023/10/05 12:09:00;;;;;;;10.40;6.43;;;19.00;63.00;;;;;;4979810;28;20046;-89
2023/10/05 12:11:26;;;;;;;10.50;5.43;;;19.10;63.50;;;;;;4978890;28;20031;-88
2023/10/05 12:13:56;;;;;;;8.00;5.35;;;19.00;63.90;;;;;;4980482;28;20034;-89
2023/10/05 12:16:27;;;;;;;12.75;5.55;;;18.60;65.40;;;;;;4980699;28;20547;-87
2023/10/05 12:18:54;;;;;;;11.32;5.22;;;18.40;65.70;;;;;;4979040;28;20035;-89
2023/10/05 12:21:21;;;;;;;9.52;6.18;;;18.40;67.60;;;;;;4961017;28;20034;-89
2023/10/05 12:23:47;;;;;;;8.00;3.90;;;18.20;67.40;;;;;;4961001;28;20024;-88
2023/10/05 12:26:15;;;;;;;8.95;5.10;;;18.40;66.50;;;;;;4978390;28;20038;-89
2023/10/05 12:28:41;;;;;;;6.18;5.30;;;18.30;66.50;;;;;;4979034;28;20027;-90
2023/10/05 12:31:09;;;;;;;12.90;5.47;;;18.20;66.10;;;;;;4979558;28;20019;-90
2023/10/05 12:33:39;;;;;;;8.93;4.38;;;18.20;67.20;;;;;;4979837;28;20086;-88
2023/10/05 12:36:08;;;;;;;8.40;5.35;;;18.10;66.50;;;;;;4979540;28;20026;-86
2023/10/05 12:38:35;;;;;;;12.27;6.05;;;18.00;67.30;;;;;;4980438;28;20073;-89
2023/10/05 12:41:12;;;;;;;11.80;5.20;;;18.00;67.70;;;;;;4978275;28;20035;-89
2023/10/05 12:43:45;;;;;;;10.18;4.30;;;18.00;67.10;;;;;;4978695;28;20023;-89
2023/10/05 12:46:11;;;;;;;8.07;4.97;;;18.00;67.90;;;;;;4978969;28;20030;-88
2023/10/05 12:48:43;;;;;;;9.70;5.07;;;17.90;68.30;;;;;;4979744;28;20160;-90
2023/10/05 12:51:09;;;;;;;8.23;3.85;;;18.00;68.90;;;;;;4978313;28;20119;-91
2023/10/05 12:53:38;;;;;;;11.55;6.07;;;18.10;68.50;;;;;;4979283;28;20039;-88
2023/10/05 12:56:04;;;;;;;8.07;5.25;;;18.00;66.90;;;;;;4979885;28;20026;-88
2023/10/05 12:58:32;;;;;;;11.80;4.57;;;18.00;68.00;;;;;;4978428;28;20030;-89
2023/10/05 13:01:07;;;;;;;10.95;5.20;;;17.80;68.10;;;;;;4980079;28;20045;-87
2023/10/05 13:03:34;;;;;;;9.98;4.15;;;17.60;68.70;;;;;;4979544;28;20027;-90
2023/10/05 13:06:03;;;;;;;12.02;5.35;;;17.60;70.00;;;;;;4981589;28;20035;-88
2023/10/05 13:08:29;;;;;;;8.70;4.72;;;17.70;70.20;;;;;;4979940;28;20023;-90
2023/10/05 13:10:56;;;;;;;8.57;4.63;;;17.70;68.60;;;;;;4980992;28;20031;-89
2023/10/05 13:13:25;;;;;;;9.25;5.57;;;17.70;69.20;;;;;;4981230;28;20564;-89
2023/10/05 13:15:52;;;;;;;11.55;5.65;;;17.70;68.10;;;;;;4980006;28;20028;-89
2023/10/05 13:18:18;;;;;;;9.50;4.68;;;17.70;68.30;;;;;;4980079;28;20027;-90
2023/10/05 13:20:49;;;;;;;10.73;4.57;;;17.70;68.50;;;;;;4980329;28;20390;-90
2023/10/05 13:23:18;;;;;;;8.98;5.22;;;17.70;68.50;;;;;;4978733;28;20086;-90
2023/10/05 13:25:48;;;;;;;6.95;4.38;;;17.80;67.30;;;;;;4976614;28;20575;-90
2023/10/05 13:28:24;;;;;;;9.48;4.40;;;17.70;69.00;;;;;;4979024;28;20037;-90
2023/10/05 13:30:50;;;;;;;10.70;5.45;;;17.80;67.80;;;;;;4985846;28;20026;-93
2023/10/05 13:33:34;;;;;;;9.75;4.35;;;17.70;66.90;;;;;;4987197;28;20133;-93
2023/10/05 13:36:06;;;;;;;8.30;4.07;;;17.70;67.20;;;;;;4996969;28;20015;-91